createdAt,value
2022-07-26T00:01:38.729Z,14.18
2022-07-26T00:04:05.757Z,11.30
2022-07-26T00:06:32.516Z,9.90
2022-07-26T00:08:59.293Z,9.80
2022-07-26T00:11:26.546Z,8.55
2022-07-26T00:13:53.961Z,12.05
2022-07-26T00:16:21.041Z,10.15
2022-07-26T00:18:47.834Z,13.00
2022-07-26T00:21:14.653Z,12.60
2022-07-26T00:23:41.437Z,12.80
2022-07-26T00:26:08.420Z,11.70
2022-07-26T00:28:35.307Z,13.73
2022-07-26T00:31:03.588Z,17.38
2022-07-26T00:33:30.404Z,12.85
2022-07-26T00:35:57.233Z,12.68
2022-07-26T00:38:24.224Z,13.20
2022-07-26T00:40:51.237Z,13.07
2022-07-26T00:43:18.329Z,12.10
2022-07-26T00:45:45.278Z,12.68
2022-07-26T00:48:12.113Z,14.88
2022-07-26T00:50:38.976Z,11.25
2022-07-26T00:53:05.870Z,11.43
2022-07-26T00:55:32.927Z,12.93
2022-07-26T00:57:59.989Z,10.75
2022-07-26T01:00:27.039Z,13.18
2022-07-26T01:02:55.161Z,13.48
2022-07-26T01:05:23.177Z,14.75
2022-07-26T01:07:50.231Z,14.25
2022-07-26T01:10:17.023Z,14.43
2022-07-26T01:12:44.663Z,13.95
2022-07-26T01:15:13.228Z,14.82
2022-07-26T01:17:40.792Z,14.82
2022-07-26T01:20:09.778Z,16.45
2022-07-26T01:22:36.758Z,15.87
2022-07-26T01:25:04.459Z,13.50
2022-07-26T01:27:34.107Z,17.05
2022-07-26T01:30:01.148Z,12.02
2022-07-26T01:32:28.009Z,13.43
2022-07-26T01:34:54.983Z,15.35
2022-07-26T01:37:21.772Z,13.77
2022-07-26T01:39:48.610Z,15.55
2022-07-26T01:42:15.400Z,15.27
2022-07-26T01:44:42.167Z,18.75
2022-07-26T01:47:09.050Z,13.52
2022-07-26T01:49:35.874Z,13.10
2022-07-26T01:52:02.700Z,11.25
2022-07-26T01:54:29.550Z,13.57
2022-07-26T01:56:56.353Z,13.70
2022-07-26T01:59:23.093Z,12.45
2022-07-26T02:01:49.959Z,14.73
2022-07-26T02:04:16.858Z,11.23
2022-07-26T02:06:43.657Z,12.50
2022-07-26T02:09:13.274Z,12.98
2022-07-26T02:11:40.098Z,13.23
2022-07-26T02:14:07.106Z,14.90
2022-07-26T02:16:34.123Z,14.10
2022-07-26T02:19:00.882Z,14.70
2022-07-26T02:21:27.661Z,15.45
2022-07-26T02:23:54.467Z,15.00
2022-07-26T02:26:21.230Z,14.00
2022-07-26T02:28:47.998Z,14.30
2022-07-26T02:31:15.417Z,10.73
2022-07-26T02:33:42.667Z,13.50
2022-07-26T02:36:09.454Z,11.90
2022-07-26T02:38:36.274Z,10.63
2022-07-26T02:41:03.071Z,13.05
2022-07-26T02:43:29.858Z,13.18
2022-07-26T02:46:01.066Z,12.13
2022-07-26T02:48:30.270Z,10.40
2022-07-26T02:50:57.271Z,11.93
2022-07-26T02:53:24.142Z,11.35
2022-07-26T02:55:50.952Z,10.23
2022-07-26T02:58:17.789Z,13.40
2022-07-26T03:00:44.649Z,9.43
2022-07-26T03:03:11.486Z,9.07
2022-07-26T03:05:38.296Z,9.45
2022-07-26T03:08:05.582Z,10.77
2022-07-26T03:10:32.885Z,11.77
2022-07-26T03:12:59.935Z,10.20
2022-07-26T03:15:26.755Z,15.35
2022-07-26T03:17:53.587Z,10.73
2022-07-26T03:20:20.425Z,10.68
2022-07-26T03:22:47.243Z,14.53
2022-07-26T03:25:15.051Z,11.80
2022-07-26T03:27:41.831Z,14.40
2022-07-26T03:30:09.832Z,10.20
2022-07-26T03:32:36.637Z,10.68
2022-07-26T03:35:03.716Z,12.15
2022-07-26T03:37:45.331Z,11.02
2022-07-26T03:40:16.852Z,10.00
2022-07-26T03:42:47.743Z,15.10
2022-07-26T03:45:15.923Z,13.32
2022-07-26T03:47:43.091Z,11.98
2022-07-26T03:50:10.662Z,14.27
2022-07-26T03:52:37.525Z,11.63
2022-07-26T03:55:04.743Z,11.45
2022-07-26T03:57:31.806Z,15.57
2022-07-26T03:59:58.583Z,13.05
2022-07-26T04:02:25.460Z,10.60
2022-07-26T04:04:52.237Z,16.65
2022-07-26T04:07:18.998Z,10.33
2022-07-26T04:09:46.046Z,11.60
2022-07-26T04:12:12.847Z,12.73
2022-07-26T04:14:39.614Z,13.70
2022-07-26T04:17:06.460Z,12.73
2022-07-26T04:19:33.318Z,12.95
2022-07-26T04:22:06.120Z,13.38
2022-07-26T04:24:32.931Z,12.57
2022-07-26T04:26:59.764Z,10.98
2022-07-26T04:29:26.527Z,14.38
2022-07-26T04:31:53.317Z,15.18
2022-07-26T04:34:20.112Z,13.00
2022-07-26T04:36:46.898Z,9.70
2022-07-26T04:39:13.703Z,15.93
2022-07-26T04:41:40.518Z,12.33
2022-07-26T04:44:07.520Z,11.95
2022-07-26T04:46:34.620Z,14.63
2022-07-26T04:49:01.536Z,12.00
2022-07-26T04:51:28.318Z,12.55
2022-07-26T04:53:55.088Z,13.30
2022-07-26T04:56:21.901Z,12.80
2022-07-26T04:58:48.712Z,15.45
2022-07-26T05:01:15.543Z,13.18
2022-07-26T05:03:42.360Z,12.80
2022-07-26T05:06:09.601Z,12.00
2022-07-26T05:08:36.499Z,12.70
2022-07-26T05:11:03.419Z,11.95
2022-07-26T05:13:31.065Z,17.98
2022-07-26T05:15:59.580Z,12.27
2022-07-26T05:18:26.914Z,11.85
2022-07-26T05:20:56.854Z,13.55
2022-07-26T05:23:23.695Z,13.98
2022-07-26T05:25:50.488Z,12.50
2022-07-26T05:28:17.314Z,15.40
2022-07-26T05:30:44.453Z,14.73
2022-07-26T05:33:11.264Z,11.60
2022-07-26T05:35:43.393Z,14.35
2022-07-26T05:38:10.177Z,13.10
2022-07-26T05:40:36.998Z,14.00
2022-07-26T05:43:03.962Z,12.90
2022-07-26T05:45:30.940Z,14.60
2022-07-26T05:47:57.714Z,13.98
2022-07-26T05:50:24.505Z,12.55
2022-07-26T05:52:51.266Z,13.43
2022-07-26T05:55:18.151Z,15.05
2022-07-26T05:57:45.930Z,14.15
2022-07-26T06:00:13.305Z,12.77
2022-07-26T06:02:41.030Z,11.18
2022-07-26T06:05:08.606Z,13.40
2022-07-26T06:07:35.475Z,11.48
2022-07-26T06:10:02.275Z,15.82
2022-07-26T06:12:29.067Z,13.40
2022-07-26T06:14:55.849Z,16.55
2022-07-26T06:17:22.849Z,14.13
2022-07-26T06:19:49.736Z,16.30
2022-07-26T06:22:16.518Z,13.60
2022-07-26T06:24:43.324Z,11.75
2022-07-26T06:27:10.111Z,13.05
2022-07-26T06:29:36.886Z,9.75
2022-07-26T06:32:04.153Z,13.87
2022-07-26T06:34:30.986Z,11.73
2022-07-26T06:36:58.299Z,18.40
2022-07-26T06:39:25.110Z,10.38
2022-07-26T06:41:52.005Z,9.60
2022-07-26T06:44:18.761Z,9.80
2022-07-26T06:46:45.551Z,9.35
2022-07-26T06:49:13.493Z,9.65
2022-07-26T06:51:40.357Z,10.00
2022-07-26T06:54:07.398Z,9.00
2022-07-26T06:56:34.345Z,9.52
2022-07-26T06:59:04.006Z,8.73
2022-07-26T07:01:58.208Z,7.72
2022-07-26T07:04:19.867Z,7.43
2022-07-26T07:06:46.619Z,7.03
2022-07-26T07:09:15.839Z,8.15
2022-07-26T07:11:42.821Z,9.38
2022-07-26T07:14:10.447Z,6.88
2022-07-26T07:16:37.422Z,6.70
2022-07-26T07:19:04.274Z,6.32
2022-07-26T07:21:31.049Z,7.80
2022-07-26T07:23:57.803Z,8.90
2022-07-26T07:26:24.962Z,9.10
2022-07-26T07:28:51.864Z,7.40
2022-07-26T07:31:23.583Z,7.72
2022-07-26T07:33:57.537Z,6.07
2022-07-26T07:36:24.491Z,5.55
2022-07-26T07:38:51.266Z,5.47
2022-07-26T07:41:18.587Z,5.40
2022-07-26T07:43:45.430Z,7.10
2022-07-26T07:46:12.393Z,6.07
2022-07-26T07:48:46.589Z,5.60
2022-07-26T07:51:14.050Z,7.60
2022-07-26T07:53:40.835Z,5.57
2022-07-26T07:56:08.063Z,5.85
2022-07-26T07:58:34.870Z,5.85
2022-07-26T08:01:01.790Z,8.73
2022-07-26T08:03:38.572Z,6.57
2022-07-26T08:06:08.257Z,6.30
2022-07-26T08:08:35.657Z,6.60
2022-07-26T08:11:02.778Z,6.90
2022-07-26T08:13:31.072Z,5.95
2022-07-26T08:15:57.963Z,7.68
2022-07-26T08:18:27.657Z,4.60
2022-07-26T08:20:55.398Z,4.95
2022-07-26T08:23:22.677Z,6.20
2022-07-26T08:25:57.015Z,6.95
2022-07-26T08:31:14.573Z,5.25
2022-07-26T08:33:46.447Z,5.97
2022-07-26T08:36:15.387Z,7.38
2022-07-26T08:38:42.586Z,8.95
2022-07-26T08:41:09.612Z,7.37
2022-07-26T08:43:46.724Z,6.45
2022-07-26T08:46:25.359Z,6.43
2022-07-26T08:48:53.622Z,8.10
2022-07-26T08:51:23.902Z,5.00
2022-07-26T08:53:56.922Z,3.28
2022-07-26T08:56:28.873Z,4.03
2022-07-26T08:58:55.788Z,3.80
2022-07-26T09:01:22.708Z,5.32
2022-07-26T09:03:49.657Z,4.70
2022-07-26T09:06:19.014Z,4.47
2022-07-26T09:08:48.266Z,5.90
2022-07-26T09:11:23.878Z,4.50
2022-07-26T09:13:52.558Z,8.00
2022-07-26T09:16:19.475Z,4.80
2022-07-26T09:18:46.409Z,4.65
2022-07-26T09:21:34.220Z,5.90
2022-07-26T09:24:01.237Z,3.92
2022-07-26T09:26:28.247Z,5.18
2022-07-26T09:29:11.331Z,3.90
2022-07-26T09:31:39.851Z,5.32
2022-07-26T09:34:07.934Z,4.07
2022-07-26T09:36:51.035Z,4.53
2022-07-26T09:39:18.029Z,5.30
2022-07-26T09:42:26.801Z,7.63
2022-07-26T09:44:55.483Z,4.10
2022-07-26T09:47:22.526Z,5.38
2022-07-26T09:49:49.478Z,8.82
2022-07-26T09:52:19.008Z,6.27
2022-07-26T09:54:47.121Z,5.07
2022-07-26T09:57:19.107Z,3.90
2022-07-26T09:59:46.817Z,6.28
2022-07-26T10:02:14.335Z,3.88
2022-07-26T10:04:44.060Z,4.53
2022-07-26T10:07:11.167Z,3.30
2022-07-26T10:09:59.041Z,4.93
2022-07-26T10:12:30.696Z,4.60
2022-07-26T10:14:58.042Z,4.10
2022-07-26T10:17:34.992Z,7.80
2022-07-26T10:20:10.705Z,6.80
2022-07-26T10:22:47.976Z,4.47
2022-07-26T10:25:18.246Z,4.60
2022-07-26T10:27:49.861Z,4.80
2022-07-26T10:30:18.869Z,4.38
2022-07-26T10:33:16.666Z,4.03
2022-07-26T10:35:45.106Z,5.70
2022-07-26T10:38:30.971Z,6.05
2022-07-26T10:41:03.840Z,7.20
2022-07-26T10:43:41.399Z,5.57
2022-07-26T10:46:19.512Z,4.88
2022-07-26T10:48:59.668Z,5.35
2022-07-26T10:51:32.748Z,6.13
2022-07-26T10:54:05.560Z,4.55
2022-07-26T10:56:34.406Z,5.13
2022-07-26T10:59:03.364Z,8.75
2022-07-26T11:01:41.564Z,5.60
2022-07-26T11:04:24.720Z,3.80
2022-07-26T11:06:52.855Z,6.43
2022-07-26T11:09:21.134Z,3.78
2022-07-26T11:11:48.889Z,4.28
2022-07-26T11:14:17.704Z,4.30
2022-07-26T11:16:47.211Z,3.85
2022-07-26T11:19:22.990Z,8.07
2022-07-26T11:22:00.027Z,6.10
2022-07-26T11:24:27.345Z,5.90
2022-07-26T11:26:54.997Z,6.07
2022-07-26T11:29:39.055Z,4.95
2022-07-26T11:32:20.410Z,6.85
2022-07-26T11:34:58.594Z,4.70
2022-07-26T11:37:25.373Z,4.45
2022-07-26T11:39:52.140Z,4.13
2022-07-26T11:42:19.972Z,3.88
2022-07-26T11:44:48.131Z,5.00
2022-07-26T11:47:17.350Z,4.40
2022-07-26T11:50:09.770Z,3.97
2022-07-26T11:52:32.281Z,4.78
2022-07-26T11:54:59.747Z,3.80
2022-07-26T11:57:31.695Z,4.40
2022-07-26T11:59:59.722Z,7.97
2022-07-26T12:02:27.942Z,3.58
2022-07-26T12:05:21.937Z,3.70
2022-07-26T12:08:03.171Z,3.10
2022-07-26T12:10:30.397Z,3.97
2022-07-26T12:13:07.631Z,5.18
2022-07-26T12:15:53.623Z,3.75
2022-07-26T12:18:31.429Z,4.10
2022-07-26T12:21:09.341Z,3.72
2022-07-26T12:23:47.426Z,4.90
2022-07-26T12:26:25.491Z,4.25
2022-07-26T12:28:53.070Z,7.50
2022-07-26T12:31:27.055Z,4.25
2022-07-26T12:33:54.044Z,5.72
2022-07-26T12:36:27.713Z,5.70
2022-07-26T12:38:56.219Z,6.90
2022-07-26T12:41:36.969Z,3.67
2022-07-26T12:44:05.349Z,4.30
2022-07-26T12:46:36.255Z,7.05
2022-07-26T12:49:04.041Z,3.90
2022-07-26T12:51:30.969Z,3.83
2022-07-26T12:53:57.768Z,4.70
2022-07-26T12:56:24.548Z,4.10
2022-07-26T12:58:51.340Z,5.90
2022-07-26T13:01:18.203Z,6.00
2022-07-26T13:03:45.029Z,4.82
2022-07-26T13:06:11.815Z,4.20
2022-07-26T13:08:40.389Z,4.80
2022-07-26T13:11:07.281Z,5.47
2022-07-26T13:13:34.111Z,5.20
2022-07-26T13:16:00.886Z,4.78
2022-07-26T13:18:27.675Z,5.43
2022-07-26T13:20:54.504Z,3.63
2022-07-26T13:23:22.078Z,5.55
2022-07-26T13:25:50.073Z,5.85
2022-07-26T13:28:17.524Z,5.00
2022-07-26T13:30:44.554Z,4.15
2022-07-26T13:33:11.372Z,6.50
2022-07-26T13:35:38.230Z,5.43
2022-07-26T13:38:05.827Z,5.20
2022-07-26T13:40:32.706Z,4.30
2022-07-26T13:42:59.877Z,5.57
2022-07-26T13:45:27.770Z,5.05
2022-07-26T13:47:59.866Z,6.57
2022-07-26T13:50:29.672Z,5.78
2022-07-26T13:52:56.971Z,6.03
2022-07-26T13:55:24.304Z,9.80
2022-07-26T13:57:55.882Z,8.07
2022-07-26T14:00:27.600Z,6.13
2022-07-26T14:02:55.350Z,7.00
2022-07-26T14:05:22.974Z,7.50
2022-07-26T14:07:50.376Z,13.70
2022-07-26T14:10:18.108Z,9.50
2022-07-26T14:12:44.939Z,7.05
2022-07-26T14:15:16.632Z,6.47
2022-07-26T14:17:45.055Z,10.70
2022-07-26T14:20:11.944Z,8.18
2022-07-26T14:22:38.779Z,10.48
2022-07-26T14:25:06.437Z,9.90
2022-07-26T14:27:33.384Z,9.23
2022-07-26T14:30:00.188Z,10.15
2022-07-26T14:32:27.059Z,8.23
2022-07-26T14:34:53.879Z,10.32
2022-07-26T14:37:42.483Z,6.47
2022-07-26T14:40:08.229Z,8.40
2022-07-26T14:42:35.056Z,7.40
2022-07-26T14:45:01.857Z,6.95
2022-07-26T14:47:28.654Z,6.00
2022-07-26T14:49:55.460Z,6.90
2022-07-26T14:52:22.240Z,10.20
2022-07-26T14:54:49.048Z,7.32
2022-07-26T14:57:15.840Z,9.07
2022-07-26T14:59:42.616Z,10.80
2022-07-26T15:02:11.879Z,8.93
2022-07-26T15:04:38.741Z,6.45
2022-07-26T15:07:05.564Z,8.37
2022-07-26T15:09:32.344Z,8.57
2022-07-26T15:11:59.142Z,9.25
2022-07-26T15:14:25.938Z,8.47
2022-07-26T15:16:52.780Z,9.38
2022-07-26T15:19:25.162Z,7.78
2022-07-26T15:21:54.201Z,13.23
2022-07-26T15:24:21.222Z,8.05
2022-07-26T15:26:50.201Z,6.75
2022-07-26T15:29:16.997Z,12.05
2022-07-26T15:31:43.869Z,18.75
2022-07-26T15:34:10.868Z,10.10
2022-07-26T15:36:37.858Z,7.63
2022-07-26T15:39:16.249Z,6.57
2022-07-26T15:41:44.682Z,5.88
2022-07-26T15:44:12.486Z,8.10
2022-07-26T15:46:39.918Z,5.47
2022-07-26T15:49:07.694Z,6.40
2022-07-26T15:51:37.088Z,8.27
2022-07-26T15:54:03.923Z,9.30
2022-07-26T15:56:30.764Z,6.90
2022-07-26T15:58:57.526Z,8.35
2022-07-26T16:01:24.388Z,11.30
2022-07-26T16:03:51.226Z,6.80
2022-07-26T16:06:18.048Z,7.20
2022-07-26T16:09:05.884Z,11.00
2022-07-26T16:11:31.949Z,7.72
2022-07-26T16:14:01.347Z,6.35
2022-07-26T16:16:30.250Z,7.35
2022-07-26T16:18:57.211Z,7.10
2022-07-26T16:21:24.452Z,10.10
2022-07-26T16:23:51.306Z,8.05
2022-07-26T16:26:18.566Z,13.05
2022-07-26T16:28:45.561Z,5.97
2022-07-26T16:31:12.550Z,7.90
2022-07-26T16:33:46.423Z,6.07
2022-07-26T16:36:13.866Z,8.10
2022-07-26T16:38:44.113Z,6.80
2022-07-26T16:41:10.999Z,9.75
2022-07-26T16:43:37.770Z,9.07
2022-07-26T16:46:04.571Z,8.50
2022-07-26T16:48:31.395Z,6.93
2022-07-26T16:50:58.242Z,7.85
2022-07-26T16:53:25.026Z,10.45
2022-07-26T16:55:51.938Z,7.93
2022-07-26T16:58:19.548Z,8.63
2022-07-26T17:00:47.062Z,14.90
2022-07-26T17:03:15.767Z,12.02
2022-07-26T17:05:43.923Z,9.48
2022-07-26T17:08:10.771Z,9.50
2022-07-26T17:10:37.727Z,8.55
2022-07-26T17:13:04.584Z,9.00
2022-07-26T17:15:31.459Z,7.20
2022-07-26T17:17:58.263Z,9.48
2022-07-26T17:20:25.253Z,9.20
2022-07-26T17:22:52.151Z,9.32
2022-07-26T17:25:18.978Z,11.55
2022-07-26T17:27:45.940Z,7.22
2022-07-26T17:30:13.646Z,9.30
2022-07-26T17:32:40.501Z,9.60
2022-07-26T17:35:07.925Z,6.37
2022-07-26T17:37:34.775Z,7.27
2022-07-26T17:40:02.378Z,7.50
2022-07-26T17:42:30.411Z,8.82
2022-07-26T17:44:57.579Z,7.82
2022-07-26T17:47:29.430Z,7.93
2022-07-26T17:50:08.993Z,9.05
2022-07-26T17:52:45.928Z,6.95
2022-07-26T17:55:12.780Z,7.40
2022-07-26T17:57:39.636Z,6.50
2022-07-26T18:00:07.121Z,8.23
2022-07-26T18:02:33.897Z,10.45
2022-07-26T18:05:00.758Z,12.38
2022-07-26T18:07:27.670Z,9.73
2022-07-26T18:09:54.596Z,6.40
2022-07-26T18:12:21.445Z,11.40
2022-07-26T18:14:48.242Z,16.45
2022-07-26T18:17:15.120Z,14.38
2022-07-26T18:19:41.922Z,10.57
2022-07-26T18:22:08.753Z,10.73
2022-07-26T18:24:35.590Z,10.90
2022-07-26T18:27:02.354Z,12.00
2022-07-26T18:29:29.118Z,8.35
2022-07-26T18:31:56.064Z,10.73
2022-07-26T18:34:22.863Z,10.02
2022-07-26T18:36:49.626Z,9.07
2022-07-26T18:39:16.418Z,8.30
2022-07-26T18:41:43.244Z,13.60
2022-07-26T18:44:10.084Z,12.00
2022-07-26T18:46:39.410Z,14.93
2022-07-26T18:49:07.022Z,12.02
2022-07-26T18:51:33.979Z,9.50
2022-07-26T18:54:00.916Z,10.80
2022-07-26T18:56:27.687Z,11.48
2022-07-26T18:58:54.534Z,9.88
2022-07-26T19:01:21.320Z,12.20
2022-07-26T19:03:48.271Z,7.18
2022-07-26T19:06:15.137Z,9.67
2022-07-26T19:08:41.920Z,10.00
2022-07-26T19:11:08.780Z,6.75
2022-07-26T19:13:35.543Z,8.93
2022-07-26T19:16:02.433Z,8.37
2022-07-26T19:18:29.291Z,7.70
2022-07-26T19:20:56.064Z,7.13
2022-07-26T19:23:22.841Z,6.53
2022-07-26T19:25:49.862Z,10.90
2022-07-26T19:28:16.650Z,12.25
2022-07-26T19:30:43.549Z,10.30
2022-07-26T19:33:10.423Z,5.77
2022-07-26T19:35:38.050Z,9.02
2022-07-26T19:38:04.856Z,9.68
2022-07-26T19:40:31.725Z,10.00
2022-07-26T19:42:58.775Z,6.70
2022-07-26T19:45:25.595Z,9.65
2022-07-26T19:47:52.402Z,9.57
2022-07-26T19:50:19.184Z,7.95
2022-07-26T19:52:46.014Z,10.35
2022-07-26T19:55:12.805Z,8.48
2022-07-26T19:57:39.625Z,9.13
2022-07-26T20:00:08.792Z,11.13
2022-07-26T20:02:35.658Z,6.90
2022-07-26T20:05:02.772Z,8.80
2022-07-26T20:07:29.553Z,11.38
2022-07-26T20:09:56.344Z,9.43
2022-07-26T20:12:23.099Z,7.00
2022-07-26T20:14:49.909Z,11.23
2022-07-26T20:17:16.902Z,7.43
2022-07-26T20:19:43.879Z,6.77
2022-07-26T20:22:11.092Z,10.02
2022-07-26T20:24:37.927Z,11.48
2022-07-26T20:27:06.325Z,7.20
2022-07-26T20:29:33.551Z,11.43
2022-07-26T20:32:00.414Z,8.90
2022-07-26T20:34:27.198Z,9.13
2022-07-26T20:36:54.201Z,7.55
2022-07-26T20:39:21.371Z,8.67
2022-07-26T20:41:48.416Z,6.10
2022-07-26T20:44:15.190Z,7.93
2022-07-26T20:46:42.068Z,6.55
2022-07-26T20:49:13.760Z,9.50
2022-07-26T20:51:42.087Z,9.20
2022-07-26T20:54:08.955Z,9.20
2022-07-26T20:56:37.795Z,5.63
2022-07-26T20:59:05.141Z,5.95
2022-07-26T21:01:32.996Z,8.00
2022-07-26T21:04:00.253Z,7.53
2022-07-26T21:06:29.212Z,8.20
2022-07-26T21:09:09.795Z,7.13
2022-07-26T21:11:40.312Z,7.13
2022-07-26T21:14:08.452Z,7.40
2022-07-26T21:16:36.593Z,8.30
2022-07-26T21:19:04.253Z,6.65
2022-07-26T21:21:31.062Z,7.30
2022-07-26T21:23:57.860Z,7.47
2022-07-26T21:26:25.908Z,8.80
2022-07-26T21:28:53.250Z,5.82
2022-07-26T21:31:20.635Z,7.32
2022-07-26T21:33:48.434Z,6.97
2022-07-26T21:36:15.276Z,6.97
2022-07-26T21:38:42.555Z,7.45
2022-07-26T21:41:09.404Z,7.85
2022-07-26T21:43:40.206Z,5.70
2022-07-26T21:46:12.208Z,6.90
2022-07-26T21:48:39.503Z,7.80
2022-07-26T21:51:06.360Z,8.15
2022-07-26T21:53:33.206Z,6.20
2022-07-26T21:56:00.008Z,8.63
2022-07-26T21:58:28.093Z,8.00
2022-07-26T22:00:55.173Z,7.03
2022-07-26T22:03:21.960Z,6.93
2022-07-26T22:05:48.831Z,5.63
2022-07-26T22:08:15.731Z,6.68
2022-07-26T22:10:45.114Z,7.05
2022-07-26T22:13:13.115Z,6.30
2022-07-26T22:15:40.296Z,5.97
2022-07-26T22:18:09.551Z,6.25
2022-07-26T22:20:36.788Z,7.95
2022-07-26T22:23:06.141Z,6.53
2022-07-26T22:25:34.564Z,6.87
2022-07-26T22:28:03.042Z,8.13
2022-07-26T22:30:30.117Z,8.25
2022-07-26T22:32:58.180Z,7.88
2022-07-26T22:35:26.594Z,6.00
2022-07-26T22:38:07.895Z,8.32
2022-07-26T22:40:36.779Z,8.00
2022-07-26T22:43:03.982Z,7.40
2022-07-26T22:45:31.899Z,7.70
2022-07-26T22:47:59.820Z,7.80
2022-07-26T22:50:26.952Z,9.13
2022-07-26T22:52:55.413Z,7.73
2022-07-26T22:55:23.116Z,7.25
2022-07-26T22:57:50.270Z,8.35
2022-07-26T23:00:19.175Z,7.25
2022-07-26T23:02:48.314Z,6.75
2022-07-26T23:05:17.477Z,8.13
2022-07-26T23:07:48.093Z,7.47
2022-07-26T23:10:16.683Z,9.20
2022-07-26T23:12:44.598Z,7.60
2022-07-26T23:15:13.294Z,6.55
2022-07-26T23:17:40.806Z,7.25
2022-07-26T23:20:09.111Z,6.35
2022-07-26T23:22:36.258Z,8.57
2022-07-26T23:25:03.038Z,7.97
2022-07-26T23:27:29.847Z,7.38
2022-07-26T23:29:56.934Z,8.07
2022-07-26T23:32:23.745Z,8.80
2022-07-26T23:34:51.036Z,6.68
2022-07-26T23:37:17.991Z,5.90
2022-07-26T23:39:44.761Z,7.30
2022-07-26T23:42:11.509Z,8.55
2022-07-26T23:44:38.390Z,8.25
2022-07-26T23:47:05.349Z,8.70
2022-07-26T23:49:32.237Z,7.70
2022-07-26T23:51:59.061Z,7.55
2022-07-26T23:54:25.864Z,7.40
2022-07-26T23:56:52.656Z,7.47
2022-07-26T23:59:19.446Z,6.47
